sensor_id;sensor_type;location;lat;lon;timestamp;pressure;altitude;pressure_sealevel;temperature;humidity
21664;BME280;10993;52.510;13.456;2022-11-15T00:01:42;-26300.81;;;5.55;100.00
21664;BME280;10993;52.510;13.456;2022-11-15T00:06:43;-26303.34;;;5.63;100.00
21664;BME280;10993;52.510;13.456;2022-11-15T00:11:44;-26303.66;;;5.64;100.00
21664;BME280;10993;52.510;13.456;2022-11-15T00:16:44;-26301.94;;;5.58;100.00
21664;BME280;10993;52.510;13.456;2022-11-15T00:21:46;-26299.88;;;5.51;100.00
21664;BME280;10993;52.510;13.456;2022-11-15T00:26:46;-26304.47;;;5.66;100.00
21664;BME280;10993;52.510;13.456;2022-11-15T00:31:46;-26299.41;;;5.50;100.00
21664;BME280;10993;52.510;13.456;2022-11-15T00:36:48;-26300.19;;;5.52;100.00
21664;BME280;10993;52.510;13.456;2022-11-15T00:41:48;-26292.28;;;5.27;100.00
21664;BME280;10993;52.510;13.456;2022-11-15T00:46:49;-26296.22;;;5.40;100.00
21664;BME280;10993;52.510;13.456;2022-11-15T00:51:50;-26296.22;;;5.40;100.00
21664;BME280;10993;52.510;13.456;2022-11-15T00:56:51;-26295.13;;;5.36;100.00
21664;BME280;10993;52.510;13.456;2022-11-15T01:01:51;-26292.91;;;5.29;100.00
21664;BME280;10993;52.510;13.456;2022-11-15T01:06:53;-26292.13;;;5.26;100.00
21664;BME280;10993;52.510;13.456;2022-11-15T01:11:53;-26293.38;;;5.30;100.00
21664;BME280;10993;52.510;13.456;2022-11-15T01:16:53;-26290.22;;;5.20;100.00
21664;BME280;10993;52.510;13.456;2022-11-15T01:21:55;-26291.03;;;5.23;100.00
21664;BME280;10993;52.510;13.456;2022-11-15T01:26:55;-26286.28;;;5.07;100.00
21664;BME280;10993;52.510;13.456;2022-11-15T01:31:56;-26286.59;;;5.08;100.00
21664;BME280;10993;52.510;13.456;2022-11-15T01:36:57;-26288.16;;;5.13;100.00
21664;BME280;10993;52.510;13.456;2022-11-15T01:41:58;-26285.94;;;5.06;100.00
21664;BME280;10993;52.510;13.456;2022-11-15T01:47:01;-26286.75;;;5.09;100.00
21664;BME280;10993;52.510;13.456;2022-11-15T01:52:07;-26283.09;;;4.97;100.00
21664;BME280;10993;52.510;13.456;2022-11-15T01:57:10;-26287.84;;;5.12;100.00
21664;BME280;10993;52.510;13.456;2022-11-15T02:02:12;-26284.84;;;5.03;100.00
21664;BME280;10993;52.510;13.456;2022-11-15T02:07:17;-26285.78;;;5.06;100.00
21664;BME280;10993;52.510;13.456;2022-11-15T02:12:19;-26286.28;;;5.07;100.00
21664;BME280;10993;52.510;13.456;2022-11-15T02:17:39;-26281.22;;;4.91;100.00
21664;BME280;10993;52.510;13.456;2022-11-15T02:22:51;-26285.16;;;5.04;100.00
21664;BME280;10993;52.510;13.456;2022-11-15T02:28:10;-26285.31;;;5.04;100.00
21664;BME280;10993;52.510;13.456;2022-11-15T02:33:27;-26282.00;;;4.93;100.00
21664;BME280;10993;52.510;13.456;2022-11-15T02:38:39;-26284.22;;;5.00;100.00
21664;BME280;10993;52.510;13.456;2022-11-15T02:43:45;-26284.22;;;5.00;100.00
21664;BME280;10993;52.510;13.456;2022-11-15T02:48:58;-26283.91;;;4.99;100.00
21664;BME280;10993;52.510;13.456;2022-11-15T02:53:58;-26277.72;;;4.79;100.00
21664;BME280;10993;52.510;13.456;2022-11-15T02:59:13;-26283.41;;;4.98;100.00
21664;BME280;10993;52.510;13.456;2022-11-15T03:04:25;-26282.31;;;4.94;100.00
21664;BME280;10993;52.510;13.456;2022-11-15T03:09:33;-26284.38;;;5.01;100.00
21664;BME280;10993;52.510;13.456;2022-11-15T03:14:39;-26284.69;;;5.02;100.00
21664;BME280;10993;52.510;13.456;2022-11-15T03:19:47;-26281.53;;;4.92;100.00
21664;BME280;10993;52.510;13.456;2022-11-15T03:24:53;-26282.47;;;4.95;100.00
21664;BME280;10993;52.510;13.456;2022-11-15T03:29:57;-26283.09;;;4.97;100.00
21664;BME280;10993;52.510;13.456;2022-11-15T03:35:02;-26281.53;;;4.92;100.00
21664;BME280;10993;52.510;13.456;2022-11-15T03:40:05;-26282.94;;;4.96;100.00
21664;BME280;10993;52.510;13.456;2022-11-15T03:45:13;-26280.88;;;4.90;100.00
21664;BME280;10993;52.510;13.456;2022-11-15T03:50:17;-26278.38;;;4.81;100.00
21664;BME280;10993;52.510;13.456;2022-11-15T03:55:19;-26283.25;;;4.97;100.00
21664;BME280;10993;52.510;13.456;2022-11-15T04:00:20;-26284.22;;;5.00;100.00
21664;BME280;10993;52.510;13.456;2022-11-15T04:05:22;-26283.75;;;4.99;100.00
21664;BME280;10993;52.510;13.456;2022-11-15T04:10:22;-26283.09;;;4.97;100.00
21664;BME280;10993;52.510;13.456;2022-11-15T04:15:23;-26280.09;;;4.87;100.00
21664;BME280;10993;52.510;13.456;2022-11-15T04:20:27;-26283.75;;;4.99;100.00
21664;BME280;10993;52.510;13.456;2022-11-15T04:25:47;-26283.25;;;4.97;100.00
21664;BME280;10993;52.510;13.456;2022-11-15T04:30:49;-26280.72;;;4.89;100.00
21664;BME280;10993;52.510;13.456;2022-11-15T04:35:51;-26281.84;;;4.93;100.00
21664;BME280;10993;52.510;13.456;2022-11-15T04:41:10;-26283.41;;;4.98;100.00
21664;BME280;10993;52.510;13.456;2022-11-15T04:46:10;-26284.22;;;5.00;100.00
21664;BME280;10993;52.510;13.456;2022-11-15T04:51:12;-26278.84;;;4.83;100.00
21664;BME280;10993;52.510;13.456;2022-11-15T04:56:13;-26277.09;;;4.77;100.00
21664;BME280;10993;52.510;13.456;2022-11-15T05:01:14;-26279.16;;;4.84;100.00
21664;BME280;10993;52.510;13.456;2022-11-15T05:06:16;-26281.84;;;4.93;100.00
21664;BME280;10993;52.510;13.456;2022-11-15T05:11:16;-26280.09;;;4.87;100.00
21664;BME280;10993;52.510;13.456;2022-11-15T05:16:16;-26281.22;;;4.91;100.00
21664;BME280;10993;52.510;13.456;2022-11-15T05:21:18;-26279.78;;;4.86;100.00
21664;BME280;10993;52.510;13.456;2022-11-15T05:26:19;-26276.13;;;4.74;100.00
21664;BME280;10993;52.510;13.456;2022-11-15T05:31:19;-26273.75;;;4.66;100.00
21664;BME280;10993;52.510;13.456;2022-11-15T05:36:27;-26278.66;;;4.82;100.00
21664;BME280;10993;52.510;13.456;2022-11-15T05:41:32;-26281.84;;;4.93;100.00
21664;BME280;10993;52.510;13.456;2022-11-15T05:46:34;-26280.88;;;4.90;100.00
21664;BME280;10993;52.510;13.456;2022-11-15T05:51:37;-26283.41;;;4.98;100.00
21664;BME280;10993;52.510;13.456;2022-11-15T05:56:38;-26280.56;;;4.89;100.00
21664;BME280;10993;52.510;13.456;2022-11-15T06:01:39;-26280.56;;;4.89;100.00
21664;BME280;10993;52.510;13.456;2022-11-15T06:06:41;-26280.88;;;4.90;100.00
21664;BME280;10993;52.510;13.456;2022-11-15T06:11:41;-26281.84;;;4.93;100.00
21664;BME280;10993;52.510;13.456;2022-11-15T06:16:42;-26275.03;;;4.71;100.00
21664;BME280;10993;52.510;13.456;2022-11-15T06:21:43;-26282.16;;;4.94;100.00
21664;BME280;10993;52.510;13.456;2022-11-15T06:26:44;-26283.09;;;4.97;100.00
21664;BME280;10993;52.510;13.456;2022-11-15T06:31:44;-26286.13;;;5.07;100.00
21664;BME280;10993;52.510;13.456;2022-11-15T06:36:46;-26284.84;;;5.03;100.00
21664;BME280;10993;52.510;13.456;2022-11-15T06:41:46;-26288.00;;;5.13;100.00
21664;BME280;10993;52.510;13.456;2022-11-15T06:46:46;-26288.00;;;5.13;100.00
21664;BME280;10993;52.510;13.456;2022-11-15T06:51:48;-26289.75;;;5.18;100.00
21664;BME280;10993;52.510;13.456;2022-11-15T06:56:48;-26294.19;;;5.33;100.00
21664;BME280;10993;52.510;13.456;2022-11-15T07:01:49;-26297.03;;;5.42;100.00
21664;BME280;10993;52.510;13.456;2022-11-15T07:06:51;-26301.44;;;5.57;100.00
21664;BME280;10993;52.510;13.456;2022-11-15T07:11:51;-26312.19;;;5.92;100.00
21664;BME280;10993;52.510;13.456;2022-11-15T07:16:51;-26319.16;;;6.14;100.00
21664;BME280;10993;52.510;13.456;2022-11-15T07:21:53;-26335.75;;;6.68;100.00
21664;BME280;10993;52.510;13.456;2022-11-15T07:26:53;-26369.66;;;7.79;100.00
21664;BME280;10993;52.510;13.456;2022-11-15T07:31:54;-26388.88;;;8.42;100.00
21664;BME280;10993;52.510;13.456;2022-11-15T07:36:56;-26418.28;;;9.39;100.00
21664;BME280;10993;52.510;13.456;2022-11-15T07:41:56;-26444.69;;;10.25;100.00
21664;BME280;10993;52.510;13.456;2022-11-15T07:47:16;-26463.81;;;10.88;100.00
21664;BME280;10993;52.510;13.456;2022-11-15T07:52:18;-26469.31;;;11.06;100.00
21664;BME280;10993;52.510;13.456;2022-11-15T07:57:18;-26489.69;;;11.73;97.89
21664;BME280;10993;52.510;13.456;2022-11-15T08:02:19;-26510.66;;;12.42;90.05
21664;BME280;10993;52.510;13.456;2022-11-15T08:07:20;-26523.78;;;12.85;85.77
21664;BME280;10993;52.510;13.456;2022-11-15T08:12:21;-26533.97;;;13.19;82.11
21664;BME280;10993;52.510;13.456;2022-11-15T08:17:21;-26553.34;;;13.83;78.00
21664;BME280;10993;52.510;13.456;2022-11-15T08:22:23;-26563.16;;;14.15;75.25
21664;BME280;10993;52.510;13.456;2022-11-15T08:27:24;-26559.72;;;14.04;74.33
21664;BME280;10993;52.510;13.456;2022-11-15T08:32:24;-26576.88;;;14.61;70.42
21664;BME280;10993;52.510;13.456;2022-11-15T08:37:26;-26592.47;;;15.12;68.21
21664;BME280;10993;52.510;13.456;2022-11-15T08:42:26;-26628.41;;;16.31;62.51
21664;BME280;10993;52.510;13.456;2022-11-15T08:47:27;-26637.28;;;16.61;59.80
21664;BME280;10993;52.510;13.456;2022-11-15T08:52:28;-26644.72;;;16.85;58.14
21664;BME280;10993;52.510;13.456;2022-11-15T08:57:29;-26649.09;;;17.00;58.60
21664;BME280;10993;52.510;13.456;2022-11-15T09:02:32;-26665.84;;;17.56;56.75
21664;BME280;10993;52.510;13.456;2022-11-15T09:07:34;-26705.03;;;18.86;54.29
21664;BME280;10993;52.510;13.456;2022-11-15T09:12:34;-26682.28;;;18.10;51.51
21664;BME280;10993;52.510;13.456;2022-11-15T09:17:35;-26697.59;;;18.61;53.31
21664;BME280;10993;52.510;13.456;2022-11-15T09:22:36;-26716.97;;;19.26;49.87
21664;BME280;10993;52.510;13.456;2022-11-15T09:27:38;-26749.88;;;20.35;47.52
21664;BME280;10993;52.510;13.456;2022-11-15T09:32:39;-26733.81;;;19.82;46.80
21664;BME280;10993;52.510;13.456;2022-11-15T09:37:40;-26768.53;;;20.98;45.96
21664;BME280;10993;52.510;13.456;2022-11-15T09:42:52;-26805.81;;;22.23;40.92
21664;BME280;10993;52.510;13.456;2022-11-15T09:48:13;-26769.00;;;20.99;44.27
21664;BME280;10993;52.510;13.456;2022-11-15T09:53:23;-26755.13;;;20.53;45.09
21664;BME280;10993;52.510;13.456;2022-11-15T09:58:30;-26787.50;;;21.61;42.70
21664;BME280;10993;52.510;13.456;2022-11-15T10:03:34;-26750.78;;;20.39;45.72
21664;BME280;10993;52.510;13.456;2022-11-15T10:08:48;-26717.56;;;19.28;47.43
21664;BME280;10993;52.510;13.456;2022-11-15T10:13:53;-26697.47;;;18.61;52.39
21664;BME280;10993;52.510;13.456;2022-11-15T10:19:00;-26774.09;;;21.16;44.55
21664;BME280;10993;52.510;13.456;2022-11-15T10:24:10;-26752.34;;;20.44;44.65
21664;BME280;10993;52.510;13.456;2022-11-15T10:29:10;-26775.00;;;21.19;43.10
21664;BME280;10993;52.510;13.456;2022-11-15T10:34:13;-26714.47;;;19.17;47.22
21664;BME280;10993;52.510;13.456;2022-11-15T10:39:15;-26707.69;;;18.95;49.29
21664;BME280;10993;52.510;13.456;2022-11-15T10:44:25;-26689.41;;;18.34;51.88
21664;BME280;10993;52.510;13.456;2022-11-15T10:49:27;-26753.25;;;20.47;46.11
21664;BME280;10993;52.510;13.456;2022-11-15T10:54:36;-26793.50;;;21.81;41.75
21664;BME280;10993;52.510;13.456;2022-11-15T10:59:38;-26797.03;;;21.93;41.51
21664;BME280;10993;52.510;13.456;2022-11-15T11:04:49;-26778.41;;;21.31;42.56
21664;BME280;10993;52.510;13.456;2022-11-15T11:09:58;-26783.16;;;21.47;43.09
21664;BME280;10993;52.510;13.456;2022-11-15T11:15:05;-26758.34;;;20.64;43.98
21664;BME280;10993;52.510;13.456;2022-11-15T11:20:17;-26778.41;;;21.31;43.40
21664;BME280;10993;52.510;13.456;2022-11-15T11:25:28;-26700.88;;;18.72;49.76
21664;BME280;10993;52.510;13.456;2022-11-15T11:30:38;-26738.91;;;19.99;47.73
21664;BME280;10993;52.510;13.456;2022-11-15T11:35:49;-26753.88;;;20.49;45.60
21664;BME280;10993;52.510;13.456;2022-11-15T11:41:00;-26736.91;;;19.92;46.85
21664;BME280;10993;52.510;13.456;2022-11-15T11:46:16;-26766.84;;;20.92;45.43
21664;BME280;10993;52.510;13.456;2022-11-15T11:51:24;-26763.91;;;20.82;44.87
21664;BME280;10993;52.510;13.456;2022-11-15T11:56:32;-26768.69;;;20.98;44.38
21664;BME280;10993;52.510;13.456;2022-11-15T12:01:37;-26737.38;;;19.94;47.52
21664;BME280;10993;52.510;13.456;2022-11-15T12:06:44;-26734.44;;;19.84;47.89
21664;BME280;10993;52.510;13.456;2022-11-15T12:11:52;-26658.69;;;17.32;57.43
21664;BME280;10993;52.510;13.456;2022-11-15T12:16:56;-26621.09;;;16.07;64.46
21664;BME280;10993;52.510;13.456;2022-11-15T12:22:02;-26592.78;;;15.13;71.69
21664;BME280;10993;52.510;13.456;2022-11-15T12:27:14;-26569.09;;;14.35;78.52
21664;BME280;10993;52.510;13.456;2022-11-15T12:32:24;-26560.66;;;14.07;81.64
21664;BME280;10993;52.510;13.456;2022-11-15T12:37:53;-26566.13;;;14.25;80.96
21664;BME280;10993;52.510;13.456;2022-11-15T12:48:56;-26552.88;;;13.81;85.60
21664;BME280;10993;52.510;13.456;2022-11-15T12:53:56;-26550.81;;;13.75;86.33
21664;BME280;10993;52.510;13.456;2022-11-15T12:58:59;-26555.34;;;13.90;85.96
21664;BME280;10993;52.510;13.456;2022-11-15T13:04:13;-26551.16;;;13.76;87.25
21664;BME280;10993;52.510;13.456;2022-11-15T13:09:51;-26552.69;;;13.81;86.54
21664;BME280;10993;52.510;13.456;2022-11-15T13:14:53;-26551.91;;;13.78;87.14
21664;BME280;10993;52.510;13.456;2022-11-15T13:19:59;-26553.16;;;13.82;86.87
21664;BME280;10993;52.510;13.456;2022-11-15T13:25:01;-26556.91;;;13.95;85.81
21664;BME280;10993;52.510;13.456;2022-11-15T13:30:04;-26554.25;;;13.86;87.08
21664;BME280;10993;52.510;13.456;2022-11-15T13:35:06;-26549.44;;;13.70;87.25
21664;BME280;10993;52.510;13.456;2022-11-15T13:40:18;-26560.50;;;14.07;85.53
21664;BME280;10993;52.510;13.456;2022-11-15T13:45:21;-26561.28;;;14.09;85.56
21664;BME280;10993;52.510;13.456;2022-11-15T13:50:25;-26560.66;;;14.07;86.27
21664;BME280;10993;52.510;13.456;2022-11-15T13:55:27;-26553.47;;;13.83;88.28
21664;BME280;10993;52.510;13.456;2022-11-15T14:00:34;-26546.94;;;13.62;90.31
21664;BME280;10993;52.510;13.456;2022-11-15T14:05:36;-26544.44;;;13.53;91.06
21664;BME280;10993;52.510;13.456;2022-11-15T14:10:37;-26542.25;;;13.46;91.52
21664;BME280;10993;52.510;13.456;2022-11-15T14:15:39;-26537.56;;;13.31;91.53
21664;BME280;10993;52.510;13.456;2022-11-15T14:20:40;-26539.75;;;13.38;92.54
21664;BME280;10993;52.510;13.456;2022-11-15T14:25:52;-26537.72;;;13.31;92.66
21664;BME280;10993;52.510;13.456;2022-11-15T14:30:55;-26530.69;;;13.08;94.13
21664;BME280;10993;52.510;13.456;2022-11-15T14:35:57;-26532.09;;;13.13;95.31
21664;BME280;10993;52.510;13.456;2022-11-15T14:40:57;-26529.75;;;13.05;96.60
21664;BME280;10993;52.510;13.456;2022-11-15T14:45:59;-26524.59;;;12.88;98.36
21664;BME280;10993;52.510;13.456;2022-11-15T14:51:00;-26518.94;;;12.69;100.00
21664;BME280;10993;52.510;13.456;2022-11-15T14:56:00;-26516.28;;;12.61;100.00
21664;BME280;10993;52.510;13.456;2022-11-15T15:01:10;-26513.16;;;12.50;100.00
21664;BME280;10993;52.510;13.456;2022-11-15T15:06:12;-26513.78;;;12.52;100.00
21664;BME280;10993;52.510;13.456;2022-11-15T15:11:15;-26509.41;;;12.38;100.00
21664;BME280;10993;52.510;13.456;2022-11-15T15:16:17;-26505.19;;;12.24;100.00
21664;BME280;10993;52.510;13.456;2022-11-15T15:21:20;-26500.03;;;12.07;100.00
21664;BME280;10993;52.510;13.456;2022-11-15T15:26:23;-26487.19;;;11.65;100.00
21664;BME280;10993;52.510;13.456;2022-11-15T15:31:24;-26493.75;;;11.86;100.00
21664;BME280;10993;52.510;13.456;2022-11-15T15:36:25;-26490.47;;;11.76;100.00
21664;BME280;10993;52.510;13.456;2022-11-15T15:41:25;-26489.53;;;11.73;100.00
21664;BME280;10993;52.510;13.456;2022-11-15T15:46:27;-26487.66;;;11.66;100.00
21664;BME280;10993;52.510;13.456;2022-11-15T15:51:27;-26483.25;;;11.52;100.00
21664;BME280;10993;52.510;13.456;2022-11-15T15:56:28;-26483.88;;;11.54;100.00
21664;BME280;10993;52.510;13.456;2022-11-15T16:01:29;-26479.81;;;11.41;100.00
21664;BME280;10993;52.510;13.456;2022-11-15T16:06:36;-26476.84;;;11.31;100.00
21664;BME280;10993;52.510;13.456;2022-11-15T16:11:37;-26479.66;;;11.40;100.00
21664;BME280;10993;52.510;13.456;2022-11-15T16:16:38;-26472.44;;;11.16;100.00
21664;BME280;10993;52.510;13.456;2022-11-15T16:21:39;-26461.78;;;10.81;100.00
21664;BME280;10993;52.510;13.456;2022-11-15T16:26:39;-26462.88;;;10.85;100.00
21664;BME280;10993;52.510;13.456;2022-11-15T16:31:41;-26457.88;;;10.68;100.00
21664;BME280;10993;52.510;13.456;2022-11-15T16:36:42;-26454.56;;;10.58;100.00
21664;BME280;10993;52.510;13.456;2022-11-15T16:41:42;-26447.97;;;10.36;100.00
21664;BME280;10993;52.510;13.456;2022-11-15T16:46:47;-26443.72;;;10.22;100.00
21664;BME280;10993;52.510;13.456;2022-11-15T16:51:51;-26444.38;;;10.24;100.00
21664;BME280;10993;52.510;13.456;2022-11-15T16:56:51;-26439.81;;;10.09;100.00
21664;BME280;10993;52.510;13.456;2022-11-15T17:01:54;-26430.69;;;9.79;100.00
21664;BME280;10993;52.510;13.456;2022-11-15T17:06:54;-26417.66;;;9.36;100.00
21664;BME280;10993;52.510;13.456;2022-11-15T17:11:54;-26426.94;;;9.67;100.00
21664;BME280;10993;52.510;13.456;2022-11-15T17:16:56;-26416.25;;;9.32;100.00
21664;BME280;10993;52.510;13.456;2022-11-15T17:21:56;-26415.78;;;9.30;100.00
21664;BME280;10993;52.510;13.456;2022-11-15T17:26:57;-26413.09;;;9.22;100.00
21664;BME280;10993;52.510;13.456;2022-11-15T17:31:58;-26406.03;;;8.98;100.00
21664;BME280;10993;52.510;13.456;2022-11-15T17:36:59;-26406.03;;;8.98;100.00
21664;BME280;10993;52.510;13.456;2022-11-15T17:41:59;-26403.34;;;8.90;100.00
21664;BME280;10993;52.510;13.456;2022-11-15T17:47:01;-26399.72;;;8.78;100.00
21664;BME280;10993;52.510;13.456;2022-11-15T17:52:01;-26398.47;;;8.74;100.00
21664;BME280;10993;52.510;13.456;2022-11-15T17:57:02;-26394.53;;;8.61;100.00
21664;BME280;10993;52.510;13.456;2022-11-15T18:02:04;-26393.59;;;8.58;100.00
21664;BME280;10993;52.510;13.456;2022-11-15T18:07:05;-26386.03;;;8.33;100.00
21664;BME280;10993;52.510;13.456;2022-11-15T18:12:06;-26387.44;;;8.38;100.00
21664;BME280;10993;52.510;13.456;2022-11-15T18:17:07;-26385.25;;;8.30;100.00
21664;BME280;10993;52.510;13.456;2022-11-15T18:22:08;-26384.94;;;8.29;100.00
21664;BME280;10993;52.510;13.456;2022-11-15T18:27:09;-26371.06;;;7.84;100.00
21664;BME280;10993;52.510;13.456;2022-11-15T18:32:11;-26379.72;;;8.12;100.00
21664;BME280;10993;52.510;13.456;2022-11-15T18:37:14;-26371.53;;;7.85;100.00
21664;BME280;10993;52.510;13.456;2022-11-15T18:42:14;-26364.13;;;7.61;100.00
21664;BME280;10993;52.510;13.456;2022-11-15T18:47:16;-26365.88;;;7.67;100.00
21664;BME280;10993;52.510;13.456;2022-11-15T18:52:16;-26370.28;;;7.81;100.00
21664;BME280;10993;52.510;13.456;2022-11-15T18:57:16;-26366.81;;;7.70;100.00
21664;BME280;10993;52.510;13.456;2022-11-15T19:02:18;-26363.50;;;7.59;100.00
21664;BME280;10993;52.510;13.456;2022-11-15T19:07:18;-26355.78;;;7.34;100.00
21664;BME280;10993;52.510;13.456;2022-11-15T19:12:19;-26360.19;;;7.48;100.00
21664;BME280;10993;52.510;13.456;2022-11-15T19:17:20;-26355.00;;;7.31;100.00
21664;BME280;10993;52.510;13.456;2022-11-15T19:22:21;-26356.56;;;7.37;100.00
21664;BME280;10993;52.510;13.456;2022-11-15T19:27:21;-26354.50;;;7.30;100.00
21664;BME280;10993;52.510;13.456;2022-11-15T19:32:22;-26354.81;;;7.31;100.00
21664;BME280;10993;52.510;13.456;2022-11-15T19:37:23;-26353.25;;;7.26;100.00
21664;BME280;10993;52.510;13.456;2022-11-15T19:42:23;-26355.16;;;7.32;100.00
21664;BME280;10993;52.510;13.456;2022-11-15T19:47:25;-26352.78;;;7.24;100.00
21664;BME280;10993;52.510;13.456;2022-11-15T19:52:26;-26355.16;;;7.32;100.00
21664;BME280;10993;52.510;13.456;2022-11-15T19:57:26;-26351.66;;;7.21;100.00
21664;BME280;10993;52.510;13.456;2022-11-15T20:02:28;-26347.09;;;7.06;100.00
21664;BME280;10993;52.510;13.456;2022-11-15T20:07:29;-26348.53;;;7.10;100.00
21664;BME280;10993;52.510;13.456;2022-11-15T20:12:29;-26351.03;;;7.18;100.00
21664;BME280;10993;52.510;13.456;2022-11-15T20:17:31;-26353.56;;;7.27;100.00
21664;BME280;10993;52.510;13.456;2022-11-15T20:22:31;-26357.03;;;7.38;100.00
21664;BME280;10993;52.510;13.456;2022-11-15T20:27:31;-26343.00;;;6.92;100.00
21664;BME280;10993;52.510;13.456;2022-11-15T20:32:33;-26348.84;;;7.11;100.00
21664;BME280;10993;52.510;13.456;2022-11-15T20:37:34;-26347.09;;;7.06;100.00
21664;BME280;10993;52.510;13.456;2022-11-15T20:42:34;-26342.84;;;6.92;100.00
21664;BME280;10993;52.510;13.456;2022-11-15T20:47:36;-26349.16;;;7.12;100.00
21664;BME280;10993;52.510;13.456;2022-11-15T20:52:36;-26348.53;;;7.10;100.00
21664;BME280;10993;52.510;13.456;2022-11-15T20:57:36;-26343.78;;;6.95;100.00
21664;BME280;10993;52.510;13.456;2022-11-15T21:02:38;-26343.63;;;6.94;100.00
21664;BME280;10993;52.510;13.456;2022-11-15T21:07:38;-26343.00;;;6.92;100.00
21664;BME280;10993;52.510;13.456;2022-11-15T21:12:38;-26349.16;;;7.12;100.00
21664;BME280;10993;52.510;13.456;2022-11-15T21:17:40;-26346.00;;;7.02;100.00
21664;BME280;10993;52.510;13.456;2022-11-15T21:22:40;-26348.84;;;7.11;100.00
21664;BME280;10993;52.510;13.456;2022-11-15T21:27:41;-26349.94;;;7.15;100.00
21664;BME280;10993;52.510;13.456;2022-11-15T21:32:44;-26349.78;;;7.14;100.00
21664;BME280;10993;52.510;13.456;2022-11-15T21:37:44;-26347.88;;;7.08;100.00
21664;BME280;10993;52.510;13.456;2022-11-15T21:42:45;-26345.84;;;7.01;100.00
21664;BME280;10993;52.510;13.456;2022-11-15T21:47:46;-26342.69;;;6.91;100.00
21664;BME280;10993;52.510;13.456;2022-11-15T21:52:47;-26344.25;;;6.96;100.00
21664;BME280;10993;52.510;13.456;2022-11-15T21:57:47;-26341.88;;;6.89;100.00
21664;BME280;10993;52.510;13.456;2022-11-15T22:02:49;-26336.38;;;6.71;100.00
21664;BME280;10993;52.510;13.456;2022-11-15T22:07:50;-26331.47;;;6.55;100.00
21664;BME280;10993;52.510;13.456;2022-11-15T22:12:50;-26332.59;;;6.58;100.00
21664;BME280;10993;52.510;13.456;2022-11-15T22:17:52;-26335.59;;;6.68;100.00
21664;BME280;10993;52.510;13.456;2022-11-15T22:22:58;-26332.91;;;6.59;100.00
21664;BME280;10993;52.510;13.456;2022-11-15T22:27:59;-26328.00;;;6.43;100.00
21664;BME280;10993;52.510;13.456;2022-11-15T22:33:01;-26333.53;;;6.61;100.00
21664;BME280;10993;52.510;13.456;2022-11-15T22:38:01;-26334.47;;;6.64;100.00
21664;BME280;10993;52.510;13.456;2022-11-15T22:43:02;-26333.69;;;6.62;100.00
21664;BME280;10993;52.510;13.456;2022-11-15T22:48:03;-26332.91;;;6.59;100.00
21664;BME280;10993;52.510;13.456;2022-11-15T22:53:04;-26332.75;;;6.59;100.00
21664;BME280;10993;52.510;13.456;2022-11-15T22:58:04;-26332.28;;;6.57;100.00
21664;BME280;10993;52.510;13.456;2022-11-15T23:03:06;-26329.44;;;6.48;100.00
21664;BME280;10993;52.510;13.456;2022-11-15T23:08:06;-26326.59;;;6.39;100.00
21664;BME280;10993;52.510;13.456;2022-11-15T23:13:11;-26327.38;;;6.41;100.00
21664;BME280;10993;52.510;13.456;2022-11-15T23:18:18;-26328.00;;;6.43;100.00
21664;BME280;10993;52.510;13.456;2022-11-15T23:23:19;-26322.94;;;6.27;100.00
21664;BME280;10993;52.510;13.456;2022-11-15T23:28:19;-26321.22;;;6.21;100.00
21664;BME280;10993;52.510;13.456;2022-11-15T23:33:21;-26316.94;;;6.07;100.00
21664;BME280;10993;52.510;13.456;2022-11-15T23:38:40;-26313.00;;;5.94;100.00
21664;BME280;10993;52.510;13.456;2022-11-15T23:43:41;-26314.41;;;5.99;100.00
21664;BME280;10993;52.510;13.456;2022-11-15T23:48:43;-26314.75;;;6.00;100.00
21664;BME280;10993;52.510;13.456;2022-11-15T23:53:43;-26312.84;;;5.94;100.00
21664;BME280;10993;52.510;13.456;2022-11-15T23:58:44;-26314.09;;;5.98;100.00
